sensor_id;sensor_type;location;lat;lon;timestamp;noise_LAeq;noise_LA_min;noise_LA_max;noise_LA01;noise_LA95
4048;Laerm;2038;51.728;6.674;2022-10-31T00:01:28;43.88;42.53;45.04;;
4048;Laerm;2038;51.728;6.674;2022-10-31T00:03:55;43.93;42.65;45.07;;
4048;Laerm;2038;51.728;6.674;2022-10-31T00:06:22;43.93;42.47;45.11;;
4048;Laerm;2038;51.728;6.674;2022-10-31T00:08:59;43.91;42.53;48.76;;
4048;Laerm;2038;51.728;6.674;2022-10-31T00:11:26;43.85;42.53;45.04;;
4048;Laerm;2038;51.728;6.674;2022-10-31T00:13:53;43.87;42.53;45.14;;
4048;Laerm;2038;51.728;6.674;2022-10-31T00:16:24;43.88;42.35;45.04;;
4048;Laerm;2038;51.728;6.674;2022-10-31T00:18:54;43.84;42.53;45.07;;
4048;Laerm;2038;51.728;6.674;2022-10-31T00:21:22;43.85;42.47;44.97;;
4048;Laerm;2038;51.728;6.674;2022-10-31T00:23:49;43.79;42.53;44.90;;
4048;Laerm;2038;51.728;6.674;2022-10-31T00:26:16;43.78;42.47;44.94;;
4048;Laerm;2038;51.728;6.674;2022-10-31T00:28:42;43.75;42.41;44.87;;
4048;Laerm;2038;51.728;6.674;2022-10-31T00:31:11;43.72;42.41;44.83;;
4048;Laerm;2038;51.728;6.674;2022-10-31T00:33:39;43.73;42.29;44.87;;
4048;Laerm;2038;51.728;6.674;2022-10-31T00:36:07;43.72;42.03;45.07;;
4048;Laerm;2038;51.728;6.674;2022-10-31T00:38:36;43.75;42.47;45.01;;
4048;Laerm;2038;51.728;6.674;2022-10-31T00:41:02;43.78;42.41;44.87;;
4048;Laerm;2038;51.728;6.674;2022-10-31T00:43:28;43.76;42.47;44.82;;
4048;Laerm;2038;51.728;6.674;2022-10-31T00:45:54;43.69;42.35;44.87;;
4048;Laerm;2038;51.728;6.674;2022-10-31T00:48:21;43.61;41.61;44.62;;
4048;Laerm;2038;51.728;6.674;2022-10-31T00:50:47;43.73;41.75;48.69;;
4048;Laerm;2038;51.728;6.674;2022-10-31T00:53:13;43.62;41.75;44.76;;
4048;Laerm;2038;51.728;6.674;2022-10-31T00:55:39;43.66;42.03;44.76;;
4048;Laerm;2038;51.728;6.674;2022-10-31T00:58:06;43.67;42.16;44.94;;
4048;Laerm;2038;51.728;6.674;2022-10-31T01:00:32;43.89;42.09;51.08;;
4048;Laerm;2038;51.728;6.674;2022-10-31T01:02:58;43.77;42.29;45.14;;
4048;Laerm;2038;51.728;6.674;2022-10-31T01:05:24;43.81;42.47;44.97;;
4048;Laerm;2038;51.728;6.674;2022-10-31T01:07:52;43.73;41.89;44.80;;
4048;Laerm;2038;51.728;6.674;2022-10-31T01:10:18;43.33;41.89;44.83;;
4048;Laerm;2038;51.728;6.674;2022-10-31T01:12:48;43.30;41.82;44.54;;
4048;Laerm;2038;51.728;6.674;2022-10-31T01:15:20;43.04;41.14;44.19;;
4048;Laerm;2038;51.728;6.674;2022-10-31T01:17:47;43.39;41.14;53.70;;
4048;Laerm;2038;51.728;6.674;2022-10-31T01:20:15;43.13;41.53;44.35;;
4048;Laerm;2038;51.728;6.674;2022-10-31T01:22:42;43.25;41.68;44.35;;
4048;Laerm;2038;51.728;6.674;2022-10-31T01:25:10;43.51;41.82;44.65;;
4048;Laerm;2038;51.728;6.674;2022-10-31T01:27:36;43.65;42.16;44.76;;
4048;Laerm;2038;51.728;6.674;2022-10-31T01:30:03;43.62;42.16;44.76;;
4048;Laerm;2038;51.728;6.674;2022-10-31T01:32:30;43.58;40.89;44.87;;
4048;Laerm;2038;51.728;6.674;2022-10-31T01:34:56;43.58;42.03;44.94;;
4048;Laerm;2038;51.728;6.674;2022-10-31T01:37:22;43.57;42.22;44.80;;
4048;Laerm;2038;51.728;6.674;2022-10-31T01:39:49;44.31;42.09;55.98;;
4048;Laerm;2038;51.728;6.674;2022-10-31T01:42:21;43.77;41.89;51.85;;
4048;Laerm;2038;51.728;6.674;2022-10-31T01:44:58;43.56;42.09;50.48;;
4048;Laerm;2038;51.728;6.674;2022-10-31T01:47:34;43.39;41.89;44.65;;
4048;Laerm;2038;51.728;6.674;2022-10-31T01:50:11;44.51;41.96;54.73;;
4048;Laerm;2038;51.728;6.674;2022-10-31T01:52:46;43.87;41.68;45.01;;
4048;Laerm;2038;51.728;6.674;2022-10-31T01:55:28;44.09;42.53;45.72;;
4048;Laerm;2038;51.728;6.674;2022-10-31T01:58:02;43.95;42.53;45.27;;
4048;Laerm;2038;51.728;6.674;2022-10-31T02:00:31;43.88;42.35;44.97;;
4048;Laerm;2038;51.728;6.674;2022-10-31T02:02:57;44.10;42.59;45.48;;
4048;Laerm;2038;51.728;6.674;2022-10-31T02:05:29;43.88;42.47;44.94;;
4048;Laerm;2038;51.728;6.674;2022-10-31T02:08:30;44.13;42.53;45.30;;
4048;Laerm;2038;51.728;6.674;2022-10-31T02:10:58;43.97;41.75;45.20;;
4048;Laerm;2038;51.728;6.674;2022-10-31T02:13:27;44.18;42.47;53.27;;
4048;Laerm;2038;51.728;6.674;2022-10-31T02:15:58;45.05;42.47;57.00;;
4048;Laerm;2038;51.728;6.674;2022-10-31T02:18:28;44.05;42.76;45.23;;
4048;Laerm;2038;51.728;6.674;2022-10-31T02:21:48;44.14;42.71;45.63;;
4048;Laerm;2038;51.728;6.674;2022-10-31T02:24:50;44.17;42.76;45.48;;
4048;Laerm;2038;51.728;6.674;2022-10-31T02:28:09;44.27;42.93;45.36;;
4048;Laerm;2038;51.728;6.674;2022-10-31T02:34:01;44.25;42.29;45.48;;
4048;Laerm;2038;51.728;6.674;2022-10-31T02:36:52;44.29;43.04;45.45;;
4048;Laerm;2038;51.728;6.674;2022-10-31T02:39:33;44.32;42.59;45.39;;
4048;Laerm;2038;51.728;6.674;2022-10-31T02:42:18;44.75;43.04;55.58;;
4048;Laerm;2038;51.728;6.674;2022-10-31T02:45:11;44.83;43.44;49.64;;
4048;Laerm;2038;51.728;6.674;2022-10-31T02:47:42;44.87;43.49;46.30;;
4048;Laerm;2038;51.728;6.674;2022-10-31T02:50:23;45.21;43.81;46.62;;
4048;Laerm;2038;51.728;6.674;2022-10-31T02:52:52;45.39;43.49;55.60;;
4048;Laerm;2038;51.728;6.674;2022-10-31T02:57:57;44.27;42.76;45.60;;
4048;Laerm;2038;51.728;6.674;2022-10-31T03:00:24;44.60;43.09;50.44;;
4048;Laerm;2038;51.728;6.674;2022-10-31T03:08:27;45.32;43.24;55.39;;
4048;Laerm;2038;51.728;6.674;2022-10-31T03:11:03;44.62;43.24;45.77;;
4048;Laerm;2038;51.728;6.674;2022-10-31T03:13:53;44.08;42.47;45.45;;
4048;Laerm;2038;51.728;6.674;2022-10-31T03:16:48;44.44;43.04;45.97;;
4048;Laerm;2038;51.728;6.674;2022-10-31T03:19:32;44.76;43.37;45.97;;
4048;Laerm;2038;51.728;6.674;2022-10-31T03:22:17;44.69;43.29;46.15;;
4048;Laerm;2038;51.728;6.674;2022-10-31T03:24:46;44.80;43.44;46.08;;
4048;Laerm;2038;51.728;6.674;2022-10-31T03:27:19;45.36;43.54;53.21;;
4048;Laerm;2038;51.728;6.674;2022-10-31T03:29:50;45.18;43.81;46.57;;
4048;Laerm;2038;51.728;6.674;2022-10-31T03:32:40;45.06;43.63;46.59;;
4048;Laerm;2038;51.728;6.674;2022-10-31T03:35:13;44.83;43.49;46.23;;
4048;Laerm;2038;51.728;6.674;2022-10-31T03:37:42;45.16;43.55;55.93;;
4048;Laerm;2038;51.728;6.674;2022-10-31T03:40:11;45.15;43.14;53.06;;
4048;Laerm;2038;51.728;6.674;2022-10-31T03:42:50;44.81;43.39;46.18;;
4048;Laerm;2038;51.728;6.674;2022-10-31T03:45:24;45.37;43.29;53.73;;
4048;Laerm;2038;51.728;6.674;2022-10-31T03:47:53;44.81;43.04;46.13;;
4048;Laerm;2038;51.728;6.674;2022-10-31T03:50:21;45.00;43.58;46.35;;
4048;Laerm;2038;51.728;6.674;2022-10-31T03:53:06;45.34;43.90;48.83;;
4048;Laerm;2038;51.728;6.674;2022-10-31T03:55:49;45.90;43.77;55.78;;
4048;Laerm;2038;51.728;6.674;2022-10-31T03:58:35;45.08;43.55;46.57;;
4048;Laerm;2038;51.728;6.674;2022-10-31T04:01:06;45.85;43.68;54.89;;
4048;Laerm;2038;51.728;6.674;2022-10-31T04:03:38;45.43;43.29;53.49;;
4048;Laerm;2038;51.728;6.674;2022-10-31T04:06:10;45.41;43.39;54.61;;
4048;Laerm;2038;51.728;6.674;2022-10-31T04:08:57;44.35;42.93;45.51;;
4048;Laerm;2038;51.728;6.674;2022-10-31T04:11:40;45.79;42.98;59.54;;
4048;Laerm;2038;51.728;6.674;2022-10-31T04:14:09;47.21;43.49;56.78;;
4048;Laerm;2038;51.728;6.674;2022-10-31T04:16:40;45.12;43.68;46.71;;
4048;Laerm;2038;51.728;6.674;2022-10-31T04:19:08;45.02;43.58;46.52;;
4048;Laerm;2038;51.728;6.674;2022-10-31T04:21:34;45.71;44.15;53.68;;
4048;Laerm;2038;51.728;6.674;2022-10-31T04:24:00;47.00;44.27;60.40;;
4048;Laerm;2038;51.728;6.674;2022-10-31T04:26:26;45.65;43.81;51.40;;
4048;Laerm;2038;51.728;6.674;2022-10-31T04:28:53;45.07;43.29;49.30;;
4048;Laerm;2038;51.728;6.674;2022-10-31T04:31:19;44.61;43.34;45.97;;
4048;Laerm;2038;51.728;6.674;2022-10-31T04:33:45;45.02;43.29;54.05;;
4048;Laerm;2038;51.728;6.674;2022-10-31T04:36:12;47.52;43.29;62.81;;
4048;Laerm;2038;51.728;6.674;2022-10-31T04:38:38;45.43;43.39;54.56;;
4048;Laerm;2038;51.728;6.674;2022-10-31T04:41:05;45.46;43.19;57.75;;
4048;Laerm;2038;51.728;6.674;2022-10-31T04:43:31;46.67;43.44;57.66;;
4048;Laerm;2038;51.728;6.674;2022-10-31T04:45:57;44.98;43.34;53.80;;
4048;Laerm;2038;51.728;6.674;2022-10-31T04:48:24;45.90;43.19;55.50;;
4048;Laerm;2038;51.728;6.674;2022-10-31T04:50:50;47.20;43.54;59.78;;
4048;Laerm;2038;51.728;6.674;2022-10-31T04:53:16;45.92;43.94;56.47;;
4048;Laerm;2038;51.728;6.674;2022-10-31T04:55:43;46.98;43.72;57.41;;
4048;Laerm;2038;51.728;6.674;2022-10-31T04:58:09;46.95;43.39;61.89;;
4048;Laerm;2038;51.728;6.674;2022-10-31T05:00:35;46.88;42.88;60.55;;
4048;Laerm;2038;51.728;6.674;2022-10-31T05:03:01;44.74;42.88;55.18;;
4048;Laerm;2038;51.728;6.674;2022-10-31T05:05:30;46.04;42.93;55.39;;
4048;Laerm;2038;51.728;6.674;2022-10-31T05:07:57;47.45;43.49;60.56;;
4048;Laerm;2038;51.728;6.674;2022-10-31T05:10:27;46.06;43.54;57.47;;
4048;Laerm;2038;51.728;6.674;2022-10-31T05:13:04;45.13;43.14;53.80;;
4048;Laerm;2038;51.728;6.674;2022-10-31T05:15:31;45.84;43.09;57.71;;
4048;Laerm;2038;51.728;6.674;2022-10-31T05:17:58;44.14;42.82;45.45;;
4048;Laerm;2038;51.728;6.674;2022-10-31T05:20:27;44.65;42.71;51.62;;
4048;Laerm;2038;51.728;6.674;2022-10-31T05:22:57;47.21;43.19;58.22;;
4048;Laerm;2038;51.728;6.674;2022-10-31T05:25:26;47.22;43.68;56.37;;
4048;Laerm;2038;51.728;6.674;2022-10-31T05:27:55;46.45;43.90;54.81;;
4048;Laerm;2038;51.728;6.674;2022-10-31T05:30:28;45.12;43.54;52.66;;
4048;Laerm;2038;51.728;6.674;2022-10-31T05:32:56;45.63;43.58;54.44;;
4048;Laerm;2038;51.728;6.674;2022-10-31T05:35:30;45.86;43.24;52.53;;
4048;Laerm;2038;51.728;6.674;2022-10-31T05:37:57;46.03;43.24;57.29;;
4048;Laerm;2038;51.728;6.674;2022-10-31T05:40:25;46.36;43.34;61.52;;
4048;Laerm;2038;51.728;6.674;2022-10-31T05:42:55;45.35;43.44;50.96;;
4048;Laerm;2038;51.728;6.674;2022-10-31T05:45:22;47.81;43.63;66.88;;
4048;Laerm;2038;51.728;6.674;2022-10-31T05:47:59;45.56;43.63;54.81;;
4048;Laerm;2038;51.728;6.674;2022-10-31T05:50:29;46.82;43.19;58.33;;
4048;Laerm;2038;51.728;6.674;2022-10-31T05:53:03;45.52;43.09;54.04;;
4048;Laerm;2038;51.728;6.674;2022-10-31T05:55:31;46.74;43.58;58.22;;
4048;Laerm;2038;51.728;6.674;2022-10-31T05:57:58;45.59;43.68;53.55;;
4048;Laerm;2038;51.728;6.674;2022-10-31T06:00:26;46.71;43.77;55.19;;
4048;Laerm;2038;51.728;6.674;2022-10-31T06:03:05;46.77;43.94;59.00;;
4048;Laerm;2038;51.728;6.674;2022-10-31T06:05:33;45.19;43.29;51.69;;
4048;Laerm;2038;51.728;6.674;2022-10-31T06:07:59;46.27;43.81;53.05;;
4048;Laerm;2038;51.728;6.674;2022-10-31T06:10:26;46.46;43.54;54.40;;
4048;Laerm;2038;51.728;6.674;2022-10-31T06:12:53;46.97;43.81;60.50;;
4048;Laerm;2038;51.728;6.674;2022-10-31T06:15:19;47.96;44.23;59.37;;
4048;Laerm;2038;51.728;6.674;2022-10-31T06:17:45;48.13;44.23;62.11;;
4048;Laerm;2038;51.728;6.674;2022-10-31T06:20:12;45.99;43.39;52.72;;
4048;Laerm;2038;51.728;6.674;2022-10-31T06:22:38;47.53;44.03;56.77;;
4048;Laerm;2038;51.728;6.674;2022-10-31T06:25:05;46.85;44.11;57.46;;
4048;Laerm;2038;51.728;6.674;2022-10-31T06:27:31;47.20;44.07;57.92;;
4048;Laerm;2038;51.728;6.674;2022-10-31T06:29:57;45.51;43.99;50.38;;
4048;Laerm;2038;51.728;6.674;2022-10-31T06:32:23;46.93;43.94;56.33;;
4048;Laerm;2038;51.728;6.674;2022-10-31T06:34:49;46.74;43.49;55.61;;
4048;Laerm;2038;51.728;6.674;2022-10-31T06:37:16;47.45;43.63;60.43;;
4048;Laerm;2038;51.728;6.674;2022-10-31T06:39:42;45.51;43.29;52.59;;
4048;Laerm;2038;51.728;6.674;2022-10-31T06:42:08;48.75;44.35;59.23;;
4048;Laerm;2038;51.728;6.674;2022-10-31T06:44:35;48.12;44.11;61.28;;
4048;Laerm;2038;51.728;6.674;2022-10-31T06:47:01;47.65;44.54;58.71;;
4048;Laerm;2038;51.728;6.674;2022-10-31T06:49:27;47.74;44.65;53.87;;
4048;Laerm;2038;51.728;6.674;2022-10-31T06:51:54;48.13;45.04;55.10;;
4048;Laerm;2038;51.728;6.674;2022-10-31T06:54:20;47.95;45.20;54.15;;
4048;Laerm;2038;51.728;6.674;2022-10-31T06:56:47;48.28;44.83;55.23;;
4048;Laerm;2038;51.728;6.674;2022-10-31T06:59:15;47.97;45.14;57.47;;
4048;Laerm;2038;51.728;6.674;2022-10-31T07:01:41;48.17;44.76;54.25;;
4048;Laerm;2038;51.728;6.674;2022-10-31T07:04:10;47.25;44.43;55.22;;
4048;Laerm;2038;51.728;6.674;2022-10-31T07:06:36;46.90;44.39;57.37;;
4048;Laerm;2038;51.728;6.674;2022-10-31T07:09:03;46.85;44.39;53.33;;
4048;Laerm;2038;51.728;6.674;2022-10-31T07:11:29;47.03;44.69;54.19;;
4048;Laerm;2038;51.728;6.674;2022-10-31T07:13:56;46.94;44.47;56.32;;
4048;Laerm;2038;51.728;6.674;2022-10-31T07:16:22;48.97;44.35;64.24;;
4048;Laerm;2038;51.728;6.674;2022-10-31T07:18:49;47.17;44.47;53.09;;
4048;Laerm;2038;51.728;6.674;2022-10-31T07:21:16;47.18;44.62;56.29;;
4048;Laerm;2038;51.728;6.674;2022-10-31T07:23:42;47.89;44.94;67.75;;
4048;Laerm;2038;51.728;6.674;2022-10-31T07:26:09;48.30;44.94;58.23;;
4048;Laerm;2038;51.728;6.674;2022-10-31T07:28:36;47.71;44.97;54.61;;
4048;Laerm;2038;51.728;6.674;2022-10-31T07:31:02;47.11;45.14;55.24;;
4048;Laerm;2038;51.728;6.674;2022-10-31T07:33:28;47.59;44.76;58.25;;
4048;Laerm;2038;51.728;6.674;2022-10-31T07:35:54;48.15;45.20;58.15;;
4048;Laerm;2038;51.728;6.674;2022-10-31T07:38:20;46.98;44.94;55.65;;
4048;Laerm;2038;51.728;6.674;2022-10-31T07:40:51;47.89;44.83;58.60;;
4048;Laerm;2038;51.728;6.674;2022-10-31T07:43:19;48.58;45.07;56.82;;
4048;Laerm;2038;51.728;6.674;2022-10-31T07:45:51;48.90;45.23;59.11;;
4048;Laerm;2038;51.728;6.674;2022-10-31T07:48:17;47.88;45.01;56.78;;
4048;Laerm;2038;51.728;6.674;2022-10-31T07:50:44;48.36;45.63;57.60;;
4048;Laerm;2038;51.728;6.674;2022-10-31T07:53:12;48.32;45.45;52.81;;
4048;Laerm;2038;51.728;6.674;2022-10-31T07:55:39;48.54;46.15;57.06;;
4048;Laerm;2038;51.728;6.674;2022-10-31T07:58:13;48.28;46.18;54.46;;
4048;Laerm;2038;51.728;6.674;2022-10-31T08:00:42;48.40;45.77;52.16;;
4048;Laerm;2038;51.728;6.674;2022-10-31T08:03:16;51.62;46.02;65.68;;
4048;Laerm;2038;51.728;6.674;2022-10-31T08:05:43;54.00;46.05;60.11;;
4048;Laerm;2038;51.728;6.674;2022-10-31T08:08:16;50.85;46.84;56.87;;
4048;Laerm;2038;51.728;6.674;2022-10-31T08:10:42;50.82;47.38;55.71;;
4048;Laerm;2038;51.728;6.674;2022-10-31T08:13:13;52.42;47.63;58.98;;
4048;Laerm;2038;51.728;6.674;2022-10-31T08:15:42;50.54;47.48;55.83;;
4048;Laerm;2038;51.728;6.674;2022-10-31T08:18:15;50.10;47.40;55.58;;
4048;Laerm;2038;51.728;6.674;2022-10-31T08:20:45;51.95;47.12;63.58;;
4048;Laerm;2038;51.728;6.674;2022-10-31T08:23:14;51.65;45.94;62.69;;
4048;Laerm;2038;51.728;6.674;2022-10-31T08:25:42;47.82;45.23;58.63;;
4048;Laerm;2038;51.728;6.674;2022-10-31T08:28:10;47.93;45.33;58.43;;
4048;Laerm;2038;51.728;6.674;2022-10-31T08:30:38;47.73;45.39;52.26;;
4048;Laerm;2038;51.728;6.674;2022-10-31T08:33:14;47.16;44.83;52.21;;
4048;Laerm;2038;51.728;6.674;2022-10-31T08:35:41;47.73;44.47;54.38;;
4048;Laerm;2038;51.728;6.674;2022-10-31T08:38:12;46.89;44.80;55.35;;
4048;Laerm;2038;51.728;6.674;2022-10-31T08:40:39;47.35;44.73;52.63;;
4048;Laerm;2038;51.728;6.674;2022-10-31T08:43:14;46.86;44.76;54.98;;
4048;Laerm;2038;51.728;6.674;2022-10-31T08:45:43;47.48;44.62;56.36;;
4048;Laerm;2038;51.728;6.674;2022-10-31T08:48:13;47.21;44.80;53.86;;
4048;Laerm;2038;51.728;6.674;2022-10-31T08:50:40;47.19;44.90;53.35;;
4048;Laerm;2038;51.728;6.674;2022-10-31T08:53:14;47.91;44.97;55.25;;
4048;Laerm;2038;51.728;6.674;2022-10-31T08:55:42;46.74;44.97;50.38;;
4048;Laerm;2038;51.728;6.674;2022-10-31T08:58:18;47.56;44.73;61.43;;
4048;Laerm;2038;51.728;6.674;2022-10-31T09:00:47;48.01;45.17;56.31;;
4048;Laerm;2038;51.728;6.674;2022-10-31T09:03:24;47.01;45.20;50.40;;
4048;Laerm;2038;51.728;6.674;2022-10-31T09:05:55;47.55;45.45;52.94;;
4048;Laerm;2038;51.728;6.674;2022-10-31T09:08:22;47.17;45.07;52.17;;
4048;Laerm;2038;51.728;6.674;2022-10-31T09:10:49;46.96;44.59;52.63;;
4048;Laerm;2038;51.728;6.674;2022-10-31T09:13:20;47.04;44.31;55.34;;
4048;Laerm;2038;51.728;6.674;2022-10-31T09:15:49;47.29;44.76;54.89;;
4048;Laerm;2038;51.728;6.674;2022-10-31T09:18:20;47.04;45.07;52.24;;
4048;Laerm;2038;51.728;6.674;2022-10-31T09:20:48;46.91;44.19;57.93;;
4048;Laerm;2038;51.728;6.674;2022-10-31T09:23:18;49.35;44.43;61.43;;
4048;Laerm;2038;51.728;6.674;2022-10-31T09:25:47;46.17;43.94;56.02;;
4048;Laerm;2038;51.728;6.674;2022-10-31T09:28:16;45.99;43.68;53.68;;
4048;Laerm;2038;51.728;6.674;2022-10-31T09:30:42;46.69;42.65;57.90;;
4048;Laerm;2038;51.728;6.674;2022-10-31T09:33:13;46.61;42.59;57.85;;
4048;Laerm;2038;51.728;6.674;2022-10-31T09:35:40;45.15;42.65;55.73;;
4048;Laerm;2038;51.728;6.674;2022-10-31T09:38:11;45.15;42.53;58.76;;
4048;Laerm;2038;51.728;6.674;2022-10-31T09:40:42;45.93;41.96;58.15;;
4048;Laerm;2038;51.728;6.674;2022-10-31T09:43:15;52.91;42.35;68.43;;
4048;Laerm;2038;51.728;6.674;2022-10-31T09:46:04;46.53;42.22;58.42;;
4048;Laerm;2038;51.728;6.674;2022-10-31T09:49:00;46.54;42.29;59.43;;
4048;Laerm;2038;51.728;6.674;2022-10-31T09:51:43;45.64;41.82;61.90;;
4048;Laerm;2038;51.728;6.674;2022-10-31T09:54:26;45.46;42.09;59.57;;
4048;Laerm;2038;51.728;6.674;2022-10-31T09:56:56;45.79;42.41;54.43;;
4048;Laerm;2038;51.728;6.674;2022-10-31T09:59:38;45.81;42.30;53.76;;
4048;Laerm;2038;51.728;6.674;2022-10-31T10:02:19;44.92;41.75;54.69;;
4048;Laerm;2038;51.728;6.674;2022-10-31T10:04:53;47.38;42.41;59.57;;
4048;Laerm;2038;51.728;6.674;2022-10-31T10:08:07;46.00;42.22;55.06;;
4048;Laerm;2038;51.728;6.674;2022-10-31T10:10:56;46.47;41.89;55.76;;
4048;Laerm;2038;51.728;6.674;2022-10-31T10:14:02;48.63;41.61;61.52;;
4048;Laerm;2038;51.728;6.674;2022-10-31T10:19:27;48.81;41.41;62.05;;
4048;Laerm;2038;51.728;6.674;2022-10-31T10:22:18;47.07;42.03;63.81;;
4048;Laerm;2038;51.728;6.674;2022-10-31T10:25:43;46.30;42.35;55.56;;
4048;Laerm;2038;51.728;6.674;2022-10-31T10:28:21;45.75;42.03;54.93;;
4048;Laerm;2038;51.728;6.674;2022-10-31T10:31:02;45.94;41.38;55.72;;
4048;Laerm;2038;51.728;6.674;2022-10-31T10:33:39;45.68;41.22;56.47;;
4048;Laerm;2038;51.728;6.674;2022-10-31T10:36:21;46.85;41.96;59.17;;
4048;Laerm;2038;51.728;6.674;2022-10-31T10:39:03;53.01;41.38;70.04;;
4048;Laerm;2038;51.728;6.674;2022-10-31T10:41:33;51.02;41.22;65.95;;
4048;Laerm;2038;51.728;6.674;2022-10-31T10:43:59;47.05;40.62;61.88;;
4048;Laerm;2038;51.728;6.674;2022-10-31T10:49:45;49.44;40.33;64.22;;
4048;Laerm;2038;51.728;6.674;2022-10-31T10:52:32;47.40;40.80;63.57;;
4048;Laerm;2038;51.728;6.674;2022-10-31T10:55:51;45.96;39.81;55.29;;
4048;Laerm;2038;51.728;6.674;2022-10-31T10:58:19;47.76;40.62;58.15;;
4048;Laerm;2038;51.728;6.674;2022-10-31T11:00:47;47.92;40.71;58.35;;
4048;Laerm;2038;51.728;6.674;2022-10-31T11:03:15;47.35;40.53;59.76;;
4048;Laerm;2038;51.728;6.674;2022-10-31T11:05:52;48.61;40.43;62.66;;
4048;Laerm;2038;51.728;6.674;2022-10-31T11:08:33;51.17;40.03;65.55;;
4048;Laerm;2038;51.728;6.674;2022-10-31T11:13:43;48.64;40.53;61.99;;
4048;Laerm;2038;51.728;6.674;2022-10-31T11:16:33;48.00;39.81;62.62;;
4048;Laerm;2038;51.728;6.674;2022-10-31T11:19:23;49.71;39.70;68.02;;
4048;Laerm;2038;51.728;6.674;2022-10-31T11:21:51;50.54;39.70;66.80;;
4048;Laerm;2038;51.728;6.674;2022-10-31T11:24:23;51.38;39.46;66.15;;
4048;Laerm;2038;51.728;6.674;2022-10-31T11:27:11;48.81;40.33;62.78;;
4048;Laerm;2038;51.728;6.674;2022-10-31T11:29:39;45.58;39.58;55.55;;
4048;Laerm;2038;51.728;6.674;2022-10-31T11:32:05;45.57;39.58;55.69;;
4048;Laerm;2038;51.728;6.674;2022-10-31T11:34:45;45.27;39.70;55.33;;
4048;Laerm;2038;51.728;6.674;2022-10-31T11:37:24;49.16;40.13;63.36;;
4048;Laerm;2038;51.728;6.674;2022-10-31T11:39:55;46.93;40.89;56.39;;
4048;Laerm;2038;51.728;6.674;2022-10-31T11:42:28;48.67;40.98;59.98;;
4048;Laerm;2038;51.728;6.674;2022-10-31T11:44:56;48.40;40.62;62.36;;
4048;Laerm;2038;51.728;6.674;2022-10-31T11:47:28;46.94;39.92;61.78;;
4048;Laerm;2038;51.728;6.674;2022-10-31T11:50:02;49.32;39.70;62.59;;
4048;Laerm;2038;51.728;6.674;2022-10-31T11:52:37;47.47;39.58;60.49;;
4048;Laerm;2038;51.728;6.674;2022-10-31T11:57:48;45.55;40.23;63.25;;
4048;Laerm;2038;51.728;6.674;2022-10-31T12:03:44;50.24;40.03;65.38;;
4048;Laerm;2038;51.728;6.674;2022-10-31T12:06:39;46.32;39.92;66.06;;
4048;Laerm;2038;51.728;6.674;2022-10-31T12:09:19;46.43;39.92;63.15;;
4048;Laerm;2038;51.728;6.674;2022-10-31T12:15:03;47.06;39.81;62.32;;
4048;Laerm;2038;51.728;6.674;2022-10-31T12:17:44;45.12;40.13;56.86;;
4048;Laerm;2038;51.728;6.674;2022-10-31T12:32:12;46.04;40.23;57.30;;
4048;Laerm;2038;51.728;6.674;2022-10-31T12:38:03;46.37;39.70;59.56;;
4048;Laerm;2038;51.728;6.674;2022-10-31T12:46:56;52.27;40.03;65.90;;
4048;Laerm;2038;51.728;6.674;2022-10-31T12:55:53;48.60;39.89;60.49;;
4048;Laerm;2038;51.728;6.674;2022-10-31T12:58:29;47.37;39.46;58.49;;
4048;Laerm;2038;51.728;6.674;2022-10-31T13:01:20;48.65;40.03;64.57;;
4048;Laerm;2038;51.728;6.674;2022-10-31T13:04:10;47.98;40.13;62.08;;
4048;Laerm;2038;51.728;6.674;2022-10-31T13:06:47;52.28;40.13;68.26;;
4048;Laerm;2038;51.728;6.674;2022-10-31T13:09:23;48.66;40.33;60.49;;
4048;Laerm;2038;51.728;6.674;2022-10-31T13:12:05;51.80;40.23;69.47;;
4048;Laerm;2038;51.728;6.674;2022-10-31T13:14:39;53.03;39.81;69.06;;
4048;Laerm;2038;51.728;6.674;2022-10-31T13:17:25;45.63;39.58;64.34;;
4048;Laerm;2038;51.728;6.674;2022-10-31T13:20:21;44.59;39.92;55.32;;
4048;Laerm;2038;51.728;6.674;2022-10-31T13:25:56;52.75;40.71;69.46;;
4048;Laerm;2038;51.728;6.674;2022-10-31T13:29:05;47.67;40.08;60.73;;
4048;Laerm;2038;51.728;6.674;2022-10-31T13:31:39;49.33;40.71;57.84;;
4048;Laerm;2038;51.728;6.674;2022-10-31T13:34:25;48.79;39.46;60.06;;
4048;Laerm;2038;51.728;6.674;2022-10-31T13:36:58;45.51;40.13;56.09;;
4048;Laerm;2038;51.728;6.674;2022-10-31T13:40:07;48.94;40.13;64.87;;
4048;Laerm;2038;51.728;6.674;2022-10-31T13:42:53;48.53;40.62;60.86;;
4048;Laerm;2038;51.728;6.674;2022-10-31T13:45:24;46.69;40.53;56.06;;
4048;Laerm;2038;51.728;6.674;2022-10-31T13:50:43;48.74;40.43;61.22;;
4048;Laerm;2038;51.728;6.674;2022-10-31T13:55:49;47.72;40.33;62.59;;
4048;Laerm;2038;51.728;6.674;2022-10-31T13:58:31;48.94;40.62;61.83;;
4048;Laerm;2038;51.728;6.674;2022-10-31T14:01:16;50.49;40.43;66.30;;
4048;Laerm;2038;51.728;6.674;2022-10-31T14:03:55;53.59;41.30;68.94;;
4048;Laerm;2038;51.728;6.674;2022-10-31T14:06:35;52.59;40.98;68.29;;
4048;Laerm;2038;51.728;6.674;2022-10-31T14:09:02;48.53;40.62;63.47;;
4048;Laerm;2038;51.728;6.674;2022-10-31T14:11:29;46.38;40.13;58.01;;
4048;Laerm;2038;51.728;6.674;2022-10-31T14:13:58;48.87;41.22;60.47;;
4048;Laerm;2038;51.728;6.674;2022-10-31T14:16:31;47.22;40.53;57.94;;
4048;Laerm;2038;51.728;6.674;2022-10-31T14:19:17;49.85;40.62;67.58;;
4048;Laerm;2038;51.728;6.674;2022-10-31T14:21:49;49.81;40.33;65.17;;
4048;Laerm;2038;51.728;6.674;2022-10-31T14:27:01;50.20;40.98;65.64;;
4048;Laerm;2038;51.728;6.674;2022-10-31T14:29:33;52.33;41.46;67.65;;
4048;Laerm;2038;51.728;6.674;2022-10-31T14:32:19;48.93;40.71;64.62;;
4048;Laerm;2038;51.728;6.674;2022-10-31T14:34:59;46.81;40.53;60.40;;
4048;Laerm;2038;51.728;6.674;2022-10-31T14:43:52;49.80;40.53;62.96;;
4048;Laerm;2038;51.728;6.674;2022-10-31T14:49:59;48.33;40.89;59.48;;
4048;Laerm;2038;51.728;6.674;2022-10-31T14:52:30;52.65;41.22;67.85;;
4048;Laerm;2038;51.728;6.674;2022-10-31T14:55:00;48.30;40.80;63.18;;
4048;Laerm;2038;51.728;6.674;2022-10-31T14:57:35;45.68;40.62;57.83;;
4048;Laerm;2038;51.728;6.674;2022-10-31T15:00:17;47.41;40.13;58.34;;
4048;Laerm;2038;51.728;6.674;2022-10-31T15:03:12;46.76;40.33;56.52;;
4048;Laerm;2038;51.728;6.674;2022-10-31T15:05:54;45.08;40.33;55.82;;
4048;Laerm;2038;51.728;6.674;2022-10-31T15:11:22;56.77;40.53;74.93;;
4048;Laerm;2038;51.728;6.674;2022-10-31T15:13:52;47.04;40.53;58.15;;
4048;Laerm;2038;51.728;6.674;2022-10-31T15:16:28;48.80;41.22;59.00;;
4048;Laerm;2038;51.728;6.674;2022-10-31T15:19:02;47.72;40.62;61.96;;
4048;Laerm;2038;51.728;6.674;2022-10-31T15:21:29;46.79;40.33;58.13;;
4048;Laerm;2038;51.728;6.674;2022-10-31T15:23:58;47.46;40.80;57.28;;
4048;Laerm;2038;51.728;6.674;2022-10-31T15:26:37;46.99;40.43;57.75;;
4048;Laerm;2038;51.728;6.674;2022-10-31T15:29:17;47.66;40.71;64.31;;
4048;Laerm;2038;51.728;6.674;2022-10-31T15:31:51;47.05;40.88;55.83;;
4048;Laerm;2038;51.728;6.674;2022-10-31T15:34:36;46.42;40.43;57.41;;
4048;Laerm;2038;51.728;6.674;2022-10-31T15:37:04;48.40;40.71;60.49;;
4048;Laerm;2038;51.728;6.674;2022-10-31T15:39:31;51.21;40.71;68.20;;
4048;Laerm;2038;51.728;6.674;2022-10-31T15:41:59;49.84;40.62;65.09;;
4048;Laerm;2038;51.728;6.674;2022-10-31T15:44:33;46.80;40.53;57.17;;
4048;Laerm;2038;51.728;6.674;2022-10-31T15:47:04;47.95;40.98;57.12;;
4048;Laerm;2038;51.728;6.674;2022-10-31T15:49:37;46.61;40.98;57.47;;
4048;Laerm;2038;51.728;6.674;2022-10-31T15:54:51;45.80;40.89;59.82;;
4048;Laerm;2038;51.728;6.674;2022-10-31T15:57:18;48.21;40.71;58.12;;
4048;Laerm;2038;51.728;6.674;2022-10-31T15:59:49;46.01;40.80;58.28;;
4048;Laerm;2038;51.728;6.674;2022-10-31T16:02:23;54.46;41.61;70.48;;
4048;Laerm;2038;51.728;6.674;2022-10-31T16:04:57;47.10;40.71;57.74;;
4048;Laerm;2038;51.728;6.674;2022-10-31T16:07:25;50.25;41.14;61.68;;